Capitol Logistics 2031

Operating for MET



KMCI
Kansas City International Airport
Kansas City, Missouri
KLAX
Los Angeles International Airport
Los Angeles, California

Route Details

Aircraft Information
Primary: Boeing 767-300BDSF
Backup: Boeing 757-200SF
Route Data
Distance: 1184nm
Duration: 3h 29m
Recm'd Route: WL5 SLN KD45W ALS TBC JASSE Q90 DNERO ANJLL4
Origin Wx: KMCI 142053Z 30012G21KT 10SM FEW130 SCT250 14/M01 A3018 RMK AO2 SLP221 T01441011 58018
Dest. Wx: KLAX 142053Z 26010KT 8SM FEW028 SCT036 BKN140 16/07 A3000 RMK AO2 SLP158 T01610072 58006 $
Notes: OPF METRO AIR VIRTUAL